Time;durP1;ratioP1;P1;durP2;ratioP2;P2;SDS_P1;SDS_P2;PMS_P1;PMS_P2;Temp;Humidity;BMP_temperature;BMP_pressure;BME280_temperature;BME280_humidity;BME280_pressure;Samples;Min_cycle;Max_cycle;Signal;HPM_P1;HPM_P2
2021/09/20 00:02:13;;;;;;;4.78;4.28;;;;;;;14.28;68.09;100111.91;5035601;28;20064;-67
2021/09/20 00:04:38;;;;;;;4.78;4.28;;;;;;;14.32;67.88;100124.88;5042102;28;20053;-67
2021/09/20 00:07:04;;;;;;;7.25;4.07;;;;;;;14.36;67.20;100123.56;5044745;28;20477;-62
2021/09/20 00:09:29;;;;;;;5.68;4.30;;;;;;;14.30;67.16;100121.53;5037474;28;20036;-65
2021/09/20 00:11:55;;;;;;;5.10;3.65;;;;;;;14.31;67.17;100125.91;5014959;28;20029;-66
2021/09/20 00:14:20;;;;;;;4.60;3.97;;;;;;;14.35;66.43;100121.03;5040557;28;20040;-67
2021/09/20 00:16:46;;;;;;;4.50;3.92;;;;;;;14.32;66.34;100127.59;5040461;28;20404;-66
2021/09/20 00:19:11;;;;;;;4.55;3.60;;;;;;;14.31;66.58;100131.28;5034851;28;20029;-67
2021/09/20 00:21:37;;;;;;;5.10;3.88;;;;;;;14.33;66.31;100139.22;5037032;28;20041;-66
2021/09/20 00:24:03;;;;;;;6.40;4.72;;;;;;;14.29;65.64;100132.47;5041826;28;20148;-66
2021/09/20 00:26:28;;;;;;;5.88;4.50;;;;;;;14.27;65.69;100140.72;5044925;28;20045;-66
2021/09/20 00:28:53;;;;;;;5.13;4.15;;;;;;;14.33;65.50;100139.22;5045107;28;20029;-66
2021/09/20 00:31:19;;;;;;;6.35;5.20;;;;;;;14.31;64.91;100134.00;5041006;28;20101;-66
2021/09/20 00:33:44;;;;;;;7.25;5.05;;;;;;;14.34;64.54;100136.38;5032080;28;20053;-62
2021/09/20 00:36:10;;;;;;;7.53;4.95;;;;;;;14.32;64.25;100143.75;5035401;28;20033;-62
2021/09/20 00:38:36;;;;;;;7.20;5.25;;;;;;;14.30;64.43;100132.31;5024830;28;20096;-63
2021/09/20 00:41:02;;;;;;;8.70;4.95;;;;;;;14.30;64.10;100126.06;5031099;28;20026;-62
2021/09/20 00:43:28;;;;;;;6.70;5.82;;;;;;;14.30;64.26;100137.72;5023380;28;20022;-62
2021/09/20 00:45:54;;;;;;;6.90;6.20;;;;;;;14.32;63.39;100130.28;5028917;28;20439;-62
2021/09/20 00:48:19;;;;;;;7.30;5.47;;;;;;;14.34;63.09;100128.28;5032039;28;20049;-62
2021/09/20 00:50:45;;;;;;;8.50;5.70;;;;;;;14.29;63.41;100130.63;5047584;28;20087;-63
2021/09/20 00:53:10;;;;;;;7.07;6.13;;;;;;;14.27;63.29;100127.25;5037708;28;20388;-63
2021/09/20 00:55:36;;;;;;;6.53;5.88;;;;;;;14.28;63.72;100139.72;5047609;28;20036;-63
2021/09/20 00:58:02;;;;;;;7.68;5.88;;;;;;;14.24;63.51;100143.75;5017872;28;20048;-63
2021/09/20 01:00:28;;;;;;;7.57;6.28;;;;;;;14.17;63.63;100137.28;5010827;28;20032;-63
2021/09/20 01:02:53;;;;;;;7.10;6.00;;;;;;;14.17;63.79;100134.59;5038581;28;20495;-63
2021/09/20 01:05:19;;;;;;;7.95;5.80;;;;;;;14.19;63.67;100129.84;5019282;28;20033;-63
2021/09/20 01:07:44;;;;;;;6.32;5.72;;;;;;;14.20;63.97;100133.41;5043884;28;20483;-63
2021/09/20 01:10:11;;;;;;;7.95;6.35;;;;;;;14.24;63.58;100132.97;5030603;28;20033;-63
2021/09/20 01:12:36;;;;;;;9.13;6.47;;;;;;;14.21;63.31;100127.00;5015459;28;20491;-62
2021/09/20 01:15:03;;;;;;;8.63;6.35;;;;;;;14.24;63.61;100124.88;5041373;28;20082;-66
2021/09/20 01:17:29;;;;;;;8.20;6.38;;;;;;;14.20;63.63;100110.00;5035447;28;20036;-67
2021/09/20 01:19:54;;;;;;;7.53;6.63;;;;;;;14.23;63.25;100117.78;5032245;28;20025;-63
2021/09/20 01:22:22;;;;;;;7.07;6.15;;;;;;;14.24;63.31;100119.47;5042314;28;20024;-63
2021/09/20 01:24:49;;;;;;;9.18;7.10;;;;;;;14.23;63.50;100122.34;5019804;28;20781;-63
2021/09/20 01:27:18;;;;;;;8.63;5.75;;;;;;;14.19;63.46;100112.84;5035778;28;20029;-62
2021/09/20 01:29:44;;;;;;;11.45;6.28;;;;;;;14.19;63.45;100112.84;5026754;28;20053;-66
2021/09/20 01:32:10;;;;;;;7.55;6.50;;;;;;;14.20;63.29;100117.22;5048146;28;20029;-66
2021/09/20 01:34:36;;;;;;;7.63;6.18;;;;;;;14.24;63.35;100116.78;5036163;28;20031;-62
2021/09/20 01:37:03;;;;;;;8.27;6.90;;;;;;;14.22;63.22;100110.66;5035452;28;20061;-63
2021/09/20 01:39:32;;;;;;;9.68;6.22;;;;;;;14.23;63.16;100117.78;5033950;28;20029;-63
2021/09/20 01:41:58;;;;;;;8.77;6.85;;;;;;;14.22;63.18;100123.31;5017272;28;20043;-63
2021/09/20 01:44:24;;;;;;;9.82;6.57;;;;;;;14.27;63.09;100129.09;5035746;28;20033;-63
2021/09/20 01:46:52;;;;;;;6.80;6.10;;;;;;;14.18;63.41;100114.69;5036965;28;20034;-67
2021/09/20 01:49:19;;;;;;;7.45;6.05;;;;;;;14.23;63.12;100119.63;5030242;28;20041;-65
2021/09/20 01:51:45;;;;;;;7.57;6.40;;;;;;;14.25;63.39;100118.44;5040949;28;20033;-65
2021/09/20 01:54:11;;;;;;;7.43;6.40;;;;;;;14.25;62.89;100115.75;5016652;28;20035;-66
2021/09/20 01:56:38;;;;;;;8.90;6.63;;;;;;;14.23;63.00;100107.00;5014210;28;20045;-65
2021/09/20 01:59:03;;;;;;;11.10;6.38;;;;;;;14.24;63.18;100116.78;5045237;28;20025;-66
2021/09/20 02:01:29;;;;;;;8.85;6.53;;;;;;;14.21;63.15;100108.97;5027759;28;20128;-66
2021/09/20 02:03:55;;;;;;;8.60;6.63;;;;;;;14.24;63.21;100110.53;5039288;28;20033;-66
2021/09/20 02:06:22;;;;;;;8.43;6.63;;;;;;;14.26;62.99;100108.53;5042728;28;20039;-65
2021/09/20 02:08:49;;;;;;;9.50;6.47;;;;;;;14.24;62.86;100107.81;5040825;28;20468;-65
2021/09/20 02:11:15;;;;;;;8.48;6.70;;;;;;;14.23;62.96;100107.00;5035811;28;20079;-62
2021/09/20 02:13:41;;;;;;;9.82;6.30;;;;;;;14.21;62.98;100105.41;5026596;28;20476;-62
2021/09/20 02:16:07;;;;;;;9.05;6.50;;;;;;;14.14;63.45;100099.00;5032776;28;20028;-62
2021/09/20 02:18:32;;;;;;;7.85;5.88;;;;;;;14.19;63.16;100107.47;5018777;28;20804;-61
2021/09/20 02:20:58;;;;;;;6.80;6.07;;;;;;;14.18;62.81;100105.78;5034741;28;20052;-62
2021/09/20 02:23:24;;;;;;;7.40;5.93;;;;;;;14.14;62.90;100099.84;5016933;28;20029;-62
2021/09/20 02:25:49;;;;;;;7.18;6.28;;;;;;;14.18;63.19;100112.00;5036390;28;20112;-63
2021/09/20 02:28:15;;;;;;;7.38;6.43;;;;;;;14.16;63.49;100107.78;5023110;28;20035;-62
2021/09/20 02:30:40;;;;;;;11.95;6.72;;;;;;;14.16;63.34;100097.00;5037374;28;20033;-62
2021/09/20 02:33:06;;;;;;;6.53;5.78;;;;;;;14.10;63.53;100085.00;5041164;28;20499;-64
2021/09/20 02:35:32;;;;;;;8.02;6.25;;;;;;;14.15;63.63;100100.69;5036464;28;20080;-64
2021/09/20 02:37:57;;;;;;;8.43;6.70;;;;;;;14.14;63.55;100101.69;5029349;28;20509;-63
2021/09/20 02:40:23;;;;;;;8.95;6.60;;;;;;;14.11;63.75;100104.72;5035680;28;20660;-61
2021/09/20 02:42:49;;;;;;;8.65;6.35;;;;;;;14.11;63.40;100105.56;5033389;28;20159;-62
2021/09/20 02:45:16;;;;;;;7.93;6.22;;;;;;;14.08;63.87;100099.63;5038201;28;20033;-61
2021/09/20 02:47:42;;;;;;;9.52;6.53;;;;;;;14.11;63.74;100100.16;5033610;28;20473;-61
2021/09/20 02:50:09;;;;;;;8.80;6.53;;;;;;;14.14;63.78;100104.38;5035630;28;20025;-65
2021/09/20 02:52:35;;;;;;;8.05;6.10;;;;;;;14.08;63.58;100100.50;5036597;28;20036;-65
2021/09/20 02:55:00;;;;;;;7.97;5.90;;;;;;;14.10;63.95;100108.41;5037665;28;20037;-65
2021/09/20 02:57:26;;;;;;;7.97;6.20;;;;;;;14.11;63.59;100110.97;5031477;28;20067;-66
2021/09/20 02:59:52;;;;;;;8.13;6.60;;;;;;;14.09;63.52;100093.25;5039531;28;20029;-66
2021/09/20 03:02:18;;;;;;;7.85;6.35;;;;;;;14.09;63.84;100102.16;5021534;28;20042;-66
2021/09/20 03:04:43;;;;;;;7.30;6.18;;;;;;;14.08;63.99;100102.34;5040370;28;20033;-65
2021/09/20 03:07:09;;;;;;;7.20;6.28;;;;;;;14.05;64.19;100098.13;5039564;28;20387;-65
2021/09/20 03:09:35;;;;;;;6.97;6.07;;;;;;;14.04;64.10;100100.97;5046130;28;20037;-66
2021/09/20 03:12:00;;;;;;;8.55;6.82;;;;;;;13.94;64.18;100082.25;5038704;28;20548;-66
2021/09/20 03:14:26;;;;;;;7.70;6.63;;;;;;;14.01;64.30;100104.00;5017394;28;20029;-66
2021/09/20 03:16:52;;;;;;;6.97;6.00;;;;;;;13.95;64.30;100093.84;5043567;28;20025;-65
2021/09/20 03:19:17;;;;;;;8.52;6.68;;;;;;;14.00;64.12;100092.38;5034189;28;20037;-66
2021/09/20 03:21:43;;;;;;;11.20;6.35;;;;;;;13.98;64.46;100089.00;5038467;28;20053;-65
2021/09/20 03:24:10;;;;;;;8.52;6.07;;;;;;;13.96;64.60;100080.22;5036088;28;20041;-66
2021/09/20 03:26:36;;;;;;;10.18;6.75;;;;;;;13.95;64.62;100081.22;5039547;28;20144;-66
2021/09/20 03:29:02;;;;;;;8.43;6.90;;;;;;;13.96;64.84;100082.91;5049364;28;20048;-66
2021/09/20 03:31:28;;;;;;;7.43;6.25;;;;;;;13.94;64.84;100081.38;5040574;28;20021;-67
2021/09/20 03:33:54;;;;;;;7.72;6.30;;;;;;;13.91;65.04;100077.16;5041823;28;20040;-67
2021/09/20 03:36:19;;;;;;;7.45;5.78;;;;;;;13.86;65.18;100074.09;5017155;28;20116;-66
2021/09/20 03:38:45;;;;;;;9.35;7.18;;;;;;;13.90;64.59;100088.97;5029896;28;20080;-66
2021/09/20 03:41:10;;;;;;;8.57;6.60;;;;;;;13.87;64.87;100083.91;5035675;28;20116;-66
2021/09/20 03:43:37;;;;;;;9.20;7.22;;;;;;;13.86;65.26;100090.28;5040311;28;20037;-66
2021/09/20 03:46:02;;;;;;;7.10;6.15;;;;;;;13.85;65.07;100093.97;5018821;28;20021;-67
2021/09/20 03:48:28;;;;;;;7.43;6.47;;;;;;;13.81;65.07;100094.47;5040163;28;20021;-67
2021/09/20 03:50:53;;;;;;;10.18;7.45;;;;;;;13.79;65.66;100091.94;5041371;28;20122;-67
2021/09/20 03:53:19;;;;;;;8.30;6.40;;;;;;;13.80;65.81;100090.09;5038415;28;20025;-67
2021/09/20 03:55:44;;;;;;;10.35;6.90;;;;;;;13.77;65.44;100085.88;5033931;28;20029;-67
2021/09/20 03:58:10;;;;;;;9.65;7.00;;;;;;;13.75;65.40;100095.94;5047402;28;20468;-67
2021/09/20 04:00:36;;;;;;;9.55;6.78;;;;;;;13.77;65.70;100102.03;5044372;28;20033;-67
2021/09/20 04:03:01;;;;;;;7.68;6.80;;;;;;;13.72;66.01;100088.19;5035564;28;20029;-67
2021/09/20 04:05:26;;;;;;;9.52;7.32;;;;;;;13.74;65.71;100099.66;5037338;28;20021;-65
2021/09/20 04:07:52;;;;;;;9.80;7.75;;;;;;;13.73;66.28;100096.13;5041652;28;20136;-66
2021/09/20 04:10:17;;;;;;;10.75;6.85;;;;;;;13.71;66.47;100099.97;5036206;28;20037;-66
2021/09/20 04:12:43;;;;;;;7.97;6.90;;;;;;;13.74;65.89;100115.84;5030580;28;20045;-67
2021/09/20 04:15:10;;;;;;;8.48;6.88;;;;;;;13.73;66.21;100111.44;5030441;28;20034;-67
2021/09/20 04:17:36;;;;;;;10.40;7.38;;;;;;;13.72;66.72;100115.13;5037110;28;20090;-67
2021/09/20 04:20:03;;;;;;;11.48;6.85;;;;;;;13.68;66.66;100103.00;5034056;28;20918;-63
2021/09/20 04:22:28;;;;;;;9.95;7.22;;;;;;;13.69;66.45;100104.69;5036385;28;20041;-63
2021/09/20 04:24:53;;;;;;;8.68;6.45;;;;;;;13.61;66.78;100096.56;5016436;28;20024;-63
2021/09/20 04:27:20;;;;;;;8.30;7.05;;;;;;;13.67;67.01;100114.75;5014553;28;20044;-66
2021/09/20 04:29:46;;;;;;;8.07;7.25;;;;;;;13.67;67.31;100114.75;5029738;28;20479;-67
2021/09/20 04:32:12;;;;;;;10.32;7.18;;;;;;;13.63;67.89;100111.56;5027062;28;20120;-66
2021/09/20 04:34:37;;;;;;;9.35;7.55;;;;;;;13.64;68.50;100109.69;5025026;28;20173;-66
2021/09/20 04:37:03;;;;;;;11.85;8.00;;;;;;;13.68;70.02;100121.84;5030458;28;20045;-66
2021/09/20 04:39:28;;;;;;;12.23;8.48;;;;;;;13.66;70.17;100110.38;5027568;28;20386;-66
2021/09/20 04:41:54;;;;;;;13.40;9.50;;;;;;;13.66;70.16;100121.16;5028137;28;20033;-67
2021/09/20 04:44:19;;;;;;;12.43;10.35;;;;;;;13.65;70.87;100116.78;5026200;28;20050;-66
2021/09/20 04:46:44;;;;;;;17.17;11.93;;;;;;;13.64;71.08;100117.78;5010592;28;20031;-66
2021/09/20 04:49:10;;;;;;;21.00;14.60;;;;;;;13.63;72.06;100119.63;5028009;28;20025;-66
2021/09/20 04:51:35;;;;;;;21.73;14.38;;;;;;;13.61;71.86;100108.16;5026558;28;20501;-67
2021/09/20 04:54:01;;;;;;;24.48;15.07;;;;;;;13.60;71.98;100106.47;5029054;28;20516;-67
2021/09/20 04:56:26;;;;;;;24.75;15.13;;;;;;;13.61;73.09;100118.13;5026648;28;20040;-67
2021/09/20 15:11:23;;;;;;;15.55;10.88;;;;;;;16.31;71.82;100552.69;5106426;27;20918;-64
2021/09/20 15:13:48;;;;;;;12.30;10.25;;;;;;;16.27;72.20;100545.91;5106436;28;20042;-64
2021/09/20 15:16:15;;;;;;;11.65;9.82;;;;;;;16.30;71.77;100551.00;5106706;28;20034;-64
2021/09/20 15:18:41;;;;;;;14.98;10.50;;;;;;;16.34;71.00;100562.34;5102717;28;20441;-67
2021/09/20 15:21:06;;;;;;;13.63;9.90;;;;;;;16.30;71.14;100561.84;5105945;28;20035;-67
2021/09/20 15:23:33;;;;;;;13.93;9.25;;;;;;;16.24;71.20;100556.22;5106931;28;20024;-67
2021/09/20 15:25:59;;;;;;;12.30;9.13;;;;;;;16.19;71.57;100566.72;5107471;28;20120;-67
2021/09/20 15:28:25;;;;;;;13.88;8.85;;;;;;;16.09;71.52;100555.16;5108440;28;20084;-67
2021/09/20 15:30:54;;;;;;;12.02;9.18;;;;;;;16.12;71.38;100563.78;5104967;28;20027;-67
2021/09/20 15:33:20;;;;;;;9.82;8.80;;;;;;;16.11;71.62;100577.47;5107230;28;20027;-67
2021/09/20 15:35:45;;;;;;;11.07;9.23;;;;;;;16.10;71.59;100573.09;5108535;28;20403;-68
2021/09/20 15:38:10;;;;;;;10.52;8.82;;;;;;;16.10;72.03;100576.66;5108456;28;20106;-68
2021/09/20 15:40:36;;;;;;;10.68;9.13;;;;;;;16.08;72.05;100583.22;5104358;28;20020;-67
2021/09/20 15:43:02;;;;;;;11.60;9.75;;;;;;;15.98;72.53;100571.69;5101097;28;20032;-67
2021/09/20 15:45:30;;;;;;;12.43;9.27;;;;;;;16.01;73.15;100583.03;5102448;28;20534;-67
2021/09/20 15:47:56;;;;;;;13.82;10.40;;;;;;;15.97;73.62;100587.09;5107351;28;20036;-67
2021/09/20 15:50:23;;;;;;;12.13;9.80;;;;;;;15.90;74.02;100576.06;5104668;28;20069;-67
2021/09/20 15:52:49;;;;;;;13.02;10.02;;;;;;;15.87;74.63;100579.09;5099175;28;20067;-67
2021/09/20 15:55:17;;;;;;;16.70;10.63;;;;;;;15.84;75.27;100586.69;5104879;28;20032;-67
2021/09/20 15:57:42;;;;;;;14.13;10.88;;;;;;;15.76;75.93;100579.38;5107140;28;20023;-67
2021/09/20 16:00:10;;;;;;;13.23;11.27;;;;;;;15.78;76.89;100593.59;5103866;28;20062;-67
2021/09/20 16:02:36;;;;;;;16.17;11.13;;;;;;;15.75;76.85;100599.34;5104515;28;20028;-67
2021/09/20 16:05:02;;;;;;;15.88;11.25;;;;;;;15.72;76.89;100593.38;5098962;28;20548;-67
2021/09/20 16:07:28;;;;;;;14.65;11.57;;;;;;;15.65;77.46;100592.34;5106413;28;20051;-67
2021/09/20 16:09:54;;;;;;;13.57;11.40;;;;;;;15.61;77.62;100594.50;5107817;28;20039;-67
2021/09/20 16:12:24;;;;;;;16.30;12.38;;;;;;;15.67;78.53;100611.94;5091528;28;20152;-67
2021/09/20 16:14:50;;;;;;;15.82;12.32;;;;;;;15.62;78.87;100595.34;5093017;28;20036;-67
2021/09/20 16:17:18;;;;;;;15.50;12.00;;;;;;;15.63;78.74;100614.13;5092094;28;20020;-67
2021/09/20 16:19:44;;;;;;;16.50;12.05;;;;;;;15.62;78.65;100609.72;5090780;28;20593;-67
2021/09/20 16:22:10;;;;;;;19.85;12.70;;;;;;;15.61;79.63;100616.13;5093033;28;20395;-67
2021/09/20 16:24:35;;;;;;;18.38;13.90;;;;;;;15.63;79.57;100619.53;5088472;28;20032;-68
2021/09/20 16:27:01;;;;;;;16.83;12.35;;;;;;;15.59;80.30;100615.47;5083318;28;20031;-67
2021/09/20 16:29:26;;;;;;;17.88;13.45;;;;;;;15.59;80.02;100631.69;5090468;28;20020;-68
2021/09/20 16:31:52;;;;;;;17.42;13.90;;;;;;;15.53;80.29;100618.78;5091581;28;20038;-68
2021/09/20 16:34:17;;;;;;;20.08;14.30;;;;;;;15.55;81.15;100621.34;5092996;28;20396;-68
2021/09/20 16:36:43;;;;;;;18.80;14.43;;;;;;;15.49;81.00;100622.84;5091851;28;20498;-68
2021/09/20 16:39:11;;;;;;;17.13;13.30;;;;;;;15.54;80.33;100636.69;5093595;28;20032;-68
2021/09/20 16:41:37;;;;;;;17.48;13.55;;;;;;;15.50;80.25;100632.63;5091560;28;20142;-68
2021/09/20 16:44:03;;;;;;;18.05;14.18;;;;;;;15.52;80.68;100643.28;5093234;28;20031;-68
2021/09/20 16:46:28;;;;;;;18.45;13.45;;;;;;;15.53;80.97;100648.53;5092908;28;20032;-68
2021/09/20 16:48:54;;;;;;;18.45;13.15;;;;;;;15.51;80.99;100641.59;5090953;28;20024;-68
2021/09/20 16:51:19;;;;;;;16.27;13.27;;;;;;;15.51;81.04;100644.28;5090906;28;20106;-68
2021/09/20 16:53:46;;;;;;;17.88;13.15;;;;;;;15.44;80.58;100644.06;5091694;28;20076;-68
2021/09/20 16:56:12;;;;;;;16.20;12.50;;;;;;;15.40;80.79;100639.13;5082772;28;20029;-67
2021/09/20 16:58:38;;;;;;;19.45;13.23;;;;;;;15.34;81.15;100640.59;5088043;28;20383;-67
2021/09/20 17:01:05;;;;;;;17.05;13.15;;;;;;;15.35;81.39;100655.78;5093395;28;20068;-68
2021/09/20 17:03:31;;;;;;;16.98;12.90;;;;;;;15.29;82.05;100655.56;5088182;28;20035;-68
2021/09/20 17:05:57;;;;;;;19.15;13.27;;;;;;;15.21;82.39;100641.97;5089727;28;20039;-68
2021/09/20 17:08:23;;;;;;;18.45;14.00;;;;;;;15.26;83.33;100656.72;5079408;28;20031;-68
2021/09/20 17:10:49;;;;;;;18.88;13.27;;;;;;;15.23;83.52;100653.50;5088123;28;20050;-68
2021/09/20 17:13:15;;;;;;;17.08;13.50;;;;;;;15.22;83.72;100665.31;5086348;28;20055;-68
2021/09/20 17:15:41;;;;;;;22.05;13.95;;;;;;;15.23;83.66;100664.31;5088144;28;20032;-68
2021/09/20 17:18:07;;;;;;;15.43;13.10;;;;;;;15.21;84.04;100675.28;5083679;28;20023;-68
2021/09/20 17:20:32;;;;;;;16.67;13.55;;;;;;;15.19;84.58;100668.31;5082941;28;20102;-68
2021/09/20 17:22:58;;;;;;;17.15;12.93;;;;;;;15.20;85.33;100676.28;5091385;28;20023;-68
2021/09/20 17:25:23;;;;;;;15.60;12.80;;;;;;;15.17;85.29;100676.59;5078314;28;20068;-68
2021/09/20 17:27:50;;;;;;;15.73;13.50;;;;;;;15.14;85.19;100682.31;5095673;28;20031;-68
2021/09/20 17:30:18;;;;;;;17.10;13.60;;;;;;;15.12;85.61;100695.09;5087438;28;20070;-68
2021/09/20 17:32:43;;;;;;;18.25;13.65;;;;;;;15.09;85.35;100692.72;5090365;28;20391;-68
2021/09/20 17:35:10;;;;;;;17.73;14.07;;;;;;;15.10;85.93;100688.16;5090211;28;20098;-67
2021/09/20 17:37:36;;;;;;;17.08;13.57;;;;;;;15.05;86.03;100687.75;5081005;28;20031;-68
2021/09/20 17:40:03;;;;;;;22.33;14.48;;;;;;;15.04;86.53;100689.63;5085315;28;20105;-67
2021/09/20 17:42:28;;;;;;;16.40;13.52;;;;;;;15.04;86.60;100694.19;5089534;28;20031;-67
2021/09/20 17:44:54;;;;;;;18.70;14.15;;;;;;;15.03;86.84;100693.31;5086541;28;20484;-67
2021/09/20 17:47:19;;;;;;;17.98;13.65;;;;;;;15.00;86.81;100696.31;5089503;28;20083;-68
2021/09/20 17:49:45;;;;;;;17.30;13.55;;;;;;;14.96;87.08;100696.81;5088352;28;20016;-68
2021/09/20 17:52:10;;;;;;;16.15;13.30;;;;;;;14.92;87.31;100704.38;5087157;28;20032;-68
2021/09/20 17:54:36;;;;;;;19.40;14.23;;;;;;;14.94;87.24;100710.47;5089719;28;20050;-67
2021/09/20 17:57:01;;;;;;;17.83;13.07;;;;;;;14.92;86.97;100703.50;5089766;28;20027;-67
2021/09/20 17:59:27;;;;;;;16.45;13.88;;;;;;;14.88;87.39;100704.81;5090329;28;20376;-68
2021/09/20 18:01:53;;;;;;;16.50;13.82;;;;;;;14.90;87.55;100709.06;5090641;28;20027;-68
2021/09/20 18:04:18;;;;;;;19.35;14.80;;;;;;;14.90;87.78;100716.34;5091791;28;20028;-68
2021/09/20 18:06:44;;;;;;;16.70;13.88;;;;;;;14.85;87.99;100719.47;5091792;28;20094;-64
2021/09/20 18:09:10;;;;;;;21.10;15.07;;;;;;;14.86;87.80;100723.88;5091301;28;20471;-65
2021/09/20 18:11:37;;;;;;;16.38;13.68;;;;;;;14.85;88.15;100730.28;5091693;28;20032;-65
2021/09/20 18:14:03;;;;;;;17.42;14.25;;;;;;;14.77;88.22;100713.97;5090254;28;20016;-65
2021/09/20 18:16:29;;;;;;;18.23;14.65;;;;;;;14.79;88.24;100728.19;5091600;28;20039;-64
2021/09/20 18:18:54;;;;;;;19.02;15.40;;;;;;;14.76;88.24;100728.50;5091432;28;20027;-65
2021/09/20 18:21:22;;;;;;;17.85;13.98;;;;;;;14.83;88.46;100734.16;5089696;28;20364;-65
2021/09/20 18:23:49;;;;;;;19.65;14.93;;;;;;;14.77;88.51;100730.19;5090632;28;20392;-65
2021/09/20 18:26:15;;;;;;;18.95;14.35;;;;;;;14.80;88.27;100740.69;5091337;28;20337;-65
2021/09/20 18:28:41;;;;;;;17.35;14.68;;;;;;;14.81;88.32;100753.19;5091258;28;20103;-64
2021/09/20 18:31:08;;;;;;;23.27;16.10;;;;;;;14.81;88.29;100755.03;5091221;28;20162;-65
2021/09/20 18:33:34;;;;;;;20.10;15.05;;;;;;;14.77;88.64;100757.19;5091014;28;20032;-64
2021/09/20 18:35:59;;;;;;;16.80;14.30;;;;;;;14.76;88.42;100765.44;5090101;28;20035;-65
2021/09/20 18:38:25;;;;;;;18.58;14.88;;;;;;;14.76;88.65;100776.22;5091198;28;20487;-64
2021/09/20 18:40:52;;;;;;;21.60;14.95;;;;;;;14.71;89.01;100765.06;5091230;28;20035;-64
2021/09/20 18:43:18;;;;;;;21.10;15.35;;;;;;;14.66;89.09;100761.94;5089823;28;20024;-67
2021/09/20 18:45:44;;;;;;;19.98;15.93;;;;;;;14.70;89.15;100775.00;5091297;28;20375;-67
2021/09/20 18:48:09;;;;;;;17.85;14.93;;;;;;;14.71;89.09;100787.50;5091100;28;20040;-68
2021/09/20 18:50:35;;;;;;;25.98;16.05;;;;;;;14.67;89.57;100783.38;5091041;28;20032;-68
2021/09/20 18:53:02;;;;;;;19.45;15.45;;;;;;;14.68;89.72;100792.34;5091207;28;20058;-68
2021/09/20 18:55:28;;;;;;;20.23;15.20;;;;;;;14.60;89.72;100778.72;5091300;28;20019;-67
2021/09/20 18:57:53;;;;;;;17.55;15.05;;;;;;;14.64;89.70;100788.25;5091094;28;20035;-66
2021/09/20 19:00:19;;;;;;;18.83;14.65;;;;;;;14.64;89.54;100794.47;5090985;28;20016;-66
2021/09/20 19:02:44;;;;;;;18.30;14.70;;;;;;;14.63;89.30;100803.59;5089702;28;20032;-67
2021/09/20 19:05:11;;;;;;;18.05;13.93;;;;;;;14.54;89.84;100799.06;5089630;28;20024;-68
2021/09/20 19:07:37;;;;;;;18.63;14.63;;;;;;;14.52;90.09;100806.50;5090805;28;20028;-68
2021/09/20 19:10:04;;;;;;;19.08;15.48;;;;;;;14.52;90.63;100809.19;5090652;28;20044;-68
2021/09/20 19:12:30;;;;;;;18.95;14.57;;;;;;;14.45;90.91;100799.13;5091075;28;20032;-67
2021/09/20 19:14:55;;;;;;;19.77;15.05;;;;;;;14.51;91.15;100814.72;5091015;28;20488;-67
2021/09/20 19:17:21;;;;;;;19.67;15.13;;;;;;;14.51;91.12;100817.44;5090726;28;20040;-67
2021/09/20 19:19:47;;;;;;;18.88;15.18;;;;;;;14.44;91.26;100811.75;5090827;28;20454;-67
2021/09/20 19:22:13;;;;;;;18.38;14.30;;;;;;;14.48;91.39;100820.44;5090761;28;20013;-67
2021/09/20 19:24:41;;;;;;;17.83;15.00;;;;;;;14.47;91.33;100822.25;5090970;28;20066;-67
2021/09/20 19:27:08;;;;;;;17.98;14.80;;;;;;;14.46;91.25;100823.28;5089693;28;20380;-67
2021/09/20 19:29:34;;;;;;;16.67;13.82;;;;;;;14.42;91.25;100819.16;5090800;28;20464;-67
2021/09/20 19:32:00;;;;;;;17.95;13.63;;;;;;;14.41;91.15;100819.31;5091063;28;20028;-67
2021/09/20 19:34:25;;;;;;;19.95;15.25;;;;;;;14.36;91.30;100821.59;5090843;28;20153;-67
2021/09/20 19:36:52;;;;;;;18.75;14.13;;;;;;;14.38;91.15;100827.69;5089481;28;20028;-67
2021/09/20 19:39:17;;;;;;;15.13;13.50;;;;;;;14.34;91.46;100827.13;5090792;28;20028;-67
2021/09/20 19:41:44;;;;;;;19.75;14.63;;;;;;;14.37;91.06;100828.69;5090757;28;20020;-67
2021/09/20 19:44:09;;;;;;;18.45;14.65;;;;;;;14.36;90.53;100827.84;5090850;28;20105;-67
2021/09/20 19:46:35;;;;;;;18.83;14.50;;;;;;;14.32;90.63;100829.13;5092546;28;20523;-67
2021/09/20 19:49:00;;;;;;;17.60;13.38;;;;;;;14.27;91.13;100823.31;5094581;28;20030;-67
2021/09/20 19:51:26;;;;;;;16.27;13.73;;;;;;;14.30;91.17;100833.81;5094347;28;20020;-66
2021/09/20 19:53:51;;;;;;;17.08;13.52;;;;;;;14.28;91.22;100835.81;5094647;28;20395;-66
2021/09/20 19:56:18;;;;;;;16.50;13.90;;;;;;;14.23;91.23;100821.91;5094340;28;20031;-66
2021/09/20 19:58:43;;;;;;;20.95;14.38;;;;;;;14.28;91.54;100829.59;5094307;28;20508;-66
2021/09/20 20:01:09;;;;;;;20.15;15.40;;;;;;;14.29;91.16;100833.97;5094170;28;20107;-66
2021/09/20 20:03:36;;;;;;;19.90;14.93;;;;;;;14.25;90.99;100830.69;5094250;28;20017;-67
2021/09/20 20:06:03;;;;;;;17.80;14.05;;;;;;;14.22;91.09;100825.56;5092733;28;20502;-65
2021/09/20 20:08:28;;;;;;;16.80;14.40;;;;;;;14.22;90.88;100830.94;5092810;28;20044;-64
2021/09/20 20:10:55;;;;;;;18.23;13.57;;;;;;;14.26;90.27;100835.13;5093992;28;20124;-64
2021/09/20 20:13:22;;;;;;;18.38;14.75;;;;;;;14.26;89.82;100837.81;5094031;28;20408;-64
2021/09/20 20:15:48;;;;;;;15.38;13.38;;;;;;;14.22;90.14;100836.34;5092722;28;20042;-64
2021/09/20 20:18:17;;;;;;;20.17;14.25;;;;;;;14.18;89.94;100834.13;5093806;28;20241;-64
2021/09/20 20:20:50;;;;;;;16.83;13.60;;;;;;;14.20;89.46;100842.91;5093923;28;20024;-64
2021/09/20 20:23:19;;;;;;;16.52;13.02;;;;;;;14.20;89.23;100845.59;5093747;28;20131;-64
2021/09/20 20:25:45;;;;;;;19.05;13.10;;;;;;;14.15;88.98;100839.81;5093687;28;20395;-64
2021/09/20 20:28:10;;;;;;;19.65;13.70;;;;;;;14.17;88.29;100843.19;5093728;28;20030;-64
2021/09/20 20:30:36;;;;;;;17.42;13.63;;;;;;;14.14;88.59;100847.03;5093534;28;20085;-64
2021/09/20 20:33:01;;;;;;;17.27;13.65;;;;;;;14.13;87.81;100845.34;5093545;28;20051;-64
2021/09/20 20:35:27;;;;;;;16.48;14.07;;;;;;;14.08;87.75;100849.44;5093780;28;20456;-63
2021/09/20 20:37:53;;;;;;;15.95;12.40;;;;;;;14.03;87.68;100838.25;5093664;28;20028;-64
2021/09/20 20:40:23;;;;;;;17.98;13.65;;;;;;;14.01;87.65;100848.31;5093522;28;20077;-64
2021/09/20 20:42:48;;;;;;;16.67;13.10;;;;;;;13.99;88.09;100861.13;5093472;28;20031;-64
2021/09/20 20:45:14;;;;;;;19.58;13.48;;;;;;;13.96;87.95;100854.13;5093300;28;20036;-64
2021/09/20 20:47:39;;;;;;;19.27;14.23;;;;;;;13.94;88.08;100853.44;5093237;28;20077;-64
2021/09/20 20:50:06;;;;;;;17.00;12.50;;;;;;;13.90;88.21;100856.56;5093198;28;20479;-64
2021/09/20 20:52:32;;;;;;;16.88;13.50;;;;;;;13.87;88.03;100857.72;5093294;28;20024;-64
2021/09/20 20:54:58;;;;;;;18.48;13.60;;;;;;;13.83;88.56;100856.28;5093383;28;20094;-64
2021/09/20 20:57:23;;;;;;;19.77;13.57;;;;;;;13.79;88.39;100860.25;5093162;28;20032;-64
2021/09/20 20:59:49;;;;;;;20.88;14.27;;;;;;;13.73;88.41;100858.97;5091813;28;20071;-64
2021/09/20 21:02:14;;;;;;;17.58;13.55;;;;;;;13.73;87.95;100860.00;5091568;28;20020;-64
2021/09/20 21:04:40;;;;;;;19.27;13.75;;;;;;;13.68;88.32;100866.63;5093200;28;20560;-64
2021/09/20 21:07:05;;;;;;;19.13;14.32;;;;;;;13.60;87.98;100854.84;5092837;28;20383;-64
2021/09/20 21:09:30;;;;;;;20.90;13.57;;;;;;;13.60;88.11;100871.03;5092674;28;20102;-64
2021/09/20 21:11:56;;;;;;;19.88;14.40;;;;;;;13.59;88.50;100875.59;5093051;28;20030;-64
2021/09/20 21:14:22;;;;;;;17.80;13.77;;;;;;;13.56;88.41;100878.56;5091346;28;20032;-64
2021/09/20 21:16:47;;;;;;;21.60;14.35;;;;;;;13.53;88.26;100886.06;5092745;28;20035;-64
2021/09/20 21:19:13;;;;;;;18.20;14.05;;;;;;;13.45;88.54;100875.13;5092639;28;20353;-64
2021/09/20 21:21:38;;;;;;;18.48;13.82;;;;;;;13.45;88.20;100888.59;5092697;28;20509;-64
2021/09/20 21:24:04;;;;;;;17.67;13.02;;;;;;;13.42;87.88;100883.50;5092638;28;20032;-64